MKJP/KIN METAR and TAF weather

Enter ICAO airport designator
Station Type Date Time Source
MKJP METAR 2020/11/27 03:00 UTC NOAA

MKJP 270300Z 02007KT 9999 FEW022 27/19 Q1014


Station Type Date Time Source
MKJP Decoded METAR 2020/11/27 03:00 UTC NOAA

Kingston / Norman Manley, Jamaica (MKJP) 17-56N 076-47W 14M
Nov 26, 2020 - 10:00 PM EST / 2020.11.27 0300 UTC
Wind: from the NNE (020 degrees) at 8 MPH (7 KT):0
Visibility: greater than 7 mile(s):0
Sky conditions: mostly clear
Temperature: 80 F (27 C)
Dew Point: 66 F (19 C)
Relative Humidity: 61%
Pressure (altimeter): 29.94 in. Hg (1014 hPa)
ob: MKJP 270300Z 02007KT 9999 FEW022 27/19 Q1014
cycle: 3

Station Type Date Time Source
MKJP TAF 2020/11/26 18:15 UTC NOAA

TAF MKJP 261715Z 2618/2718 17010KT 9999 FEW022
BECMG 2701/2703 35005KT
BECMG 2714/2716 17010KT

Example: see airport list